createdAt,value
2023-04-05T00:04:52.304Z,97496.03
2023-04-05T00:10:13.242Z,97499.81
2023-04-05T00:15:33.998Z,97501.38
2023-04-05T00:20:54.531Z,97488.06
2023-04-05T00:26:15.563Z,97481.06
2023-04-05T00:31:41.217Z,97478.59
2023-04-05T00:37:01.908Z,97473.34
2023-04-05T00:42:22.660Z,97474.69
2023-04-05T00:47:44.190Z,97474.44
2023-04-05T00:53:05.544Z,97464.66
2023-04-05T00:58:26.362Z,97459.34
2023-04-05T01:03:53.826Z,97459.31
2023-04-05T01:09:23.424Z,97456.59
2023-04-05T01:14:50.255Z,97449.63
2023-04-05T01:20:11.937Z,97434.94
2023-04-05T01:26:02.537Z,97436.50
2023-04-05T01:31:35.383Z,97431.31
2023-04-05T01:37:02.682Z,97430.78
2023-04-05T01:42:26.016Z,97420.97
2023-04-05T01:47:47.081Z,97430.00
2023-04-05T01:53:08.437Z,97419.28
2023-04-05T01:58:29.441Z,97425.88
2023-04-05T02:03:50.419Z,97422.72
2023-04-05T02:09:11.363Z,97426.16
2023-04-05T02:14:32.489Z,97423.69
2023-04-05T02:19:53.280Z,97423.09
2023-04-05T02:25:14.627Z,97416.03
2023-04-05T02:30:35.370Z,97410.00
2023-04-05T02:35:56.357Z,97408.44
2023-04-05T02:41:17.797Z,97401.78
2023-04-05T02:46:38.656Z,97403.22
2023-04-05T02:51:59.876Z,97406.97
2023-04-05T02:57:20.688Z,97404.50
2023-04-05T03:02:48.970Z,97403.63
2023-04-05T03:08:18.592Z,97405.06
2023-04-05T03:13:46.601Z,97398.25
2023-04-05T03:19:22.479Z,97401.94
2023-04-05T03:24:47.902Z,97399.63
2023-04-05T03:30:11.989Z,97394.22
2023-04-05T03:35:39.091Z,97392.34
2023-04-05T03:41:02.981Z,97380.91
2023-04-05T03:46:24.369Z,97390.44
2023-04-05T03:51:46.473Z,97397.25
2023-04-05T03:57:07.612Z,97395.50
2023-04-05T04:02:29.281Z,97390.69
2023-04-05T04:07:50.162Z,97393.34
2023-04-05T04:13:12.815Z,97404.50
2023-04-05T04:18:34.112Z,97392.16
2023-04-05T04:24:19.552Z,97383.31
2023-04-05T04:29:48.259Z,97393.50
2023-04-05T04:35:39.295Z,97394.53
2023-04-05T04:41:26.838Z,97389.88
2023-04-05T04:47:14.799Z,97397.66
2023-04-05T04:52:54.550Z,97400.00
2023-04-05T04:58:15.910Z,97400.22
2023-04-05T05:03:40.354Z,97397.25
2023-04-05T05:09:01.389Z,97396.47
2023-04-05T05:14:23.797Z,97397.47
2023-04-05T05:19:45.663Z,97399.88
2023-04-05T05:25:07.395Z,97394.53
2023-04-05T05:30:28.818Z,97398.50
2023-04-05T05:35:51.368Z,97401.91
2023-04-05T05:41:12.169Z,97402.66
2023-04-05T05:46:33.190Z,97395.84
2023-04-05T05:51:53.844Z,97394.06
2023-04-05T05:57:14.593Z,97400.09
2023-04-05T06:02:35.409Z,97395.44
2023-04-05T06:07:56.025Z,97398.31
2023-04-05T06:13:17.330Z,97400.81
2023-04-05T06:18:38.426Z,97395.03
2023-04-05T06:23:59.277Z,97389.47
2023-04-05T06:29:20.116Z,97391.59
2023-04-05T06:34:41.149Z,97388.84
2023-04-05T06:40:02.011Z,97393.03
2023-04-05T06:45:23.468Z,97392.50
2023-04-05T06:50:44.218Z,97395.00
2023-04-05T06:56:05.199Z,97389.88
2023-04-05T07:01:26.399Z,97384.97
2023-04-05T07:06:47.350Z,97386.50
2023-04-05T07:12:08.957Z,97387.00
2023-04-05T07:17:29.710Z,97387.50
2023-04-05T07:22:50.445Z,97386.16
2023-04-05T07:28:11.097Z,97387.22
2023-04-05T07:33:32.144Z,97378.72
2023-04-05T07:38:57.546Z,97379.22
2023-04-05T07:44:18.459Z,97376.28
2023-04-05T07:49:39.338Z,97382.91
2023-04-05T07:55:00.217Z,97373.75
2023-04-05T08:00:21.506Z,97371.78
2023-04-05T08:05:42.606Z,97372.34
2023-04-05T08:11:04.183Z,97372.91
2023-04-05T08:16:24.840Z,97375.81
2023-04-05T08:21:45.632Z,97375.34
2023-04-05T08:27:06.520Z,97367.50
2023-04-05T08:32:27.429Z,97371.63
2023-04-05T08:37:48.686Z,97373.09
2023-04-05T08:43:31.321Z,97365.41
2023-04-05T08:48:53.372Z,97360.94
2023-04-05T08:54:14.778Z,97364.25
2023-04-05T08:59:42.092Z,97359.50
2023-04-05T09:05:03.943Z,97360.69
2023-04-05T09:10:27.314Z,97345.94
2023-04-05T09:15:48.887Z,97349.00
2023-04-05T09:21:10.222Z,97337.88
2023-04-05T09:31:54.961Z,97333.75
2023-04-05T09:37:20.609Z,97336.34
2023-04-05T09:42:48.284Z,97340.84
2023-04-05T09:48:10.279Z,97336.69
2023-04-05T09:53:31.193Z,97329.50
2023-04-05T09:58:52.440Z,97328.66
2023-04-05T10:04:13.098Z,97319.44
2023-04-05T10:09:35.464Z,97326.34
2023-04-05T10:14:57.163Z,97324.97
2023-04-05T10:20:21.101Z,97329.34
2023-04-05T10:25:53.724Z,97332.13
2023-04-05T10:31:45.815Z,97332.56
2023-04-05T10:37:07.446Z,97323.72
2023-04-05T10:42:34.983Z,97320.53
2023-04-05T10:48:07.047Z,97319.28
2023-04-05T10:53:28.635Z,97311.09
2023-04-05T10:58:50.839Z,97303.94
2023-04-05T11:04:13.617Z,97301.41
2023-04-05T11:09:35.089Z,97301.41
2023-04-05T11:15:27.951Z,97288.75
2023-04-05T11:20:56.011Z,97292.00
2023-04-05T11:26:16.985Z,97293.59
2023-04-05T11:31:57.943Z,97287.09
2023-04-05T11:37:18.665Z,97281.91
2023-04-05T11:42:39.422Z,97279.22
2023-04-05T11:48:11.812Z,97279.81
2023-04-05T11:53:32.367Z,97273.41
2023-04-05T11:58:58.443Z,97270.09
2023-04-05T12:04:19.508Z,97272.31
2023-04-05T12:10:04.662Z,97272.16
2023-04-05T12:15:25.341Z,97274.13
2023-04-05T12:20:46.335Z,97271.78
2023-04-05T12:26:08.670Z,97263.09
2023-04-05T12:31:37.477Z,97268.56
2023-04-05T12:37:00.715Z,97256.06
2023-04-05T12:42:22.704Z,97253.66
2023-04-05T12:47:50.941Z,97246.84
2023-04-05T12:53:23.372Z,97247.88
2023-04-05T12:58:48.600Z,97249.38
2023-04-05T13:04:16.013Z,97242.88
2023-04-05T13:09:37.613Z,97236.34
2023-04-05T13:14:58.345Z,97234.53
2023-04-05T13:20:19.174Z,97239.56
2023-04-05T13:25:41.829Z,97244.53
2023-04-05T13:31:03.746Z,97229.88
2023-04-05T13:36:24.604Z,97230.72
2023-04-05T13:41:45.588Z,97227.22
2023-04-05T13:47:06.525Z,97220.22
2023-04-05T13:52:27.294Z,97218.09
2023-04-05T13:57:48.562Z,97220.88
2023-04-05T14:03:09.463Z,97229.56
2023-04-05T14:08:30.345Z,97217.00
2023-04-05T14:13:51.621Z,97213.38
2023-04-05T14:19:12.769Z,97215.28
2023-04-05T14:24:33.893Z,97210.06
2023-04-05T14:29:58.465Z,97204.38
2023-04-05T14:35:19.102Z,97199.56
2023-04-05T14:40:40.193Z,97197.38
2023-04-05T14:46:01.225Z,97207.22
2023-04-05T14:51:21.906Z,97208.47
2023-04-05T14:56:42.624Z,97207.22
2023-04-05T15:02:03.747Z,97208.94
2023-04-05T15:07:24.746Z,97202.22
2023-04-05T15:12:45.549Z,97204.25
2023-04-05T15:18:08.121Z,97203.31
2023-04-05T15:23:29.012Z,97199.81
2023-04-05T15:28:49.710Z,97198.78
2023-04-05T15:34:10.557Z,97196.75
2023-04-05T15:39:31.614Z,97198.69
2023-04-05T15:44:52.258Z,97196.75
2023-04-05T15:50:13.254Z,97197.09
2023-04-05T15:55:34.423Z,97199.09
2023-04-05T16:00:55.454Z,97204.25
2023-04-05T16:06:16.706Z,97198.56
2023-04-05T16:11:37.497Z,97193.84
2023-04-05T16:16:58.414Z,97195.28
2023-04-05T16:22:19.166Z,97192.41
2023-04-05T16:27:40.216Z,97195.28
2023-04-05T16:33:01.132Z,97197.69
2023-04-05T16:38:22.153Z,97188.50
2023-04-05T16:43:42.985Z,97192.84
2023-04-05T16:49:04.039Z,97195.00
2023-04-05T16:54:25.492Z,97195.69
2023-04-05T16:59:46.466Z,97195.16
2023-04-05T17:05:07.535Z,97192.31
2023-04-05T17:10:28.549Z,97196.41
2023-04-05T17:15:49.541Z,97194.91
2023-04-05T17:21:12.349Z,97198.22
2023-04-05T17:26:33.083Z,97189.88
2023-04-05T17:31:53.951Z,97198.69
2023-04-05T17:37:14.919Z,97195.22
2023-04-05T17:42:35.859Z,97203.16
2023-04-05T17:47:57.240Z,97207.31
2023-04-05T17:53:19.508Z,97213.28
2023-04-05T17:58:40.359Z,97219.75
2023-04-05T18:04:01.193Z,97225.09
2023-04-05T18:09:22.408Z,97232.19
2023-04-05T18:14:43.125Z,97236.06
2023-04-05T18:20:04.962Z,97239.09
2023-04-05T18:25:26.632Z,97246.69
2023-04-05T18:30:50.186Z,97241.44
2023-04-05T18:36:15.022Z,97253.75
2023-04-05T18:41:35.593Z,97253.16
2023-04-05T18:46:57.095Z,97261.63
2023-04-05T18:52:22.683Z,97271.84
2023-04-05T18:57:43.288Z,97272.63
2023-04-05T19:03:04.156Z,97273.72
2023-04-05T19:08:25.697Z,97277.47
2023-04-05T19:13:46.653Z,97281.94
2023-04-05T19:19:07.878Z,97277.25
2023-04-05T19:24:29.154Z,97284.94
2023-04-05T19:29:50.032Z,97284.03
2023-04-05T19:35:10.939Z,97285.28
2023-04-05T19:40:32.231Z,97288.97
2023-04-05T19:45:57.350Z,97286.84
2023-04-05T19:51:19.649Z,97295.28
2023-04-05T19:56:42.004Z,97291.88
2023-04-05T20:02:10.208Z,97282.03
2023-04-05T20:07:31.285Z,97282.47
2023-04-05T20:12:52.449Z,97290.63
2023-04-05T20:18:39.993Z,97290.72
2023-04-05T20:24:02.032Z,97284.66
2023-04-05T20:29:28.800Z,97285.72
2023-04-05T20:34:49.835Z,97277.81
2023-04-05T20:40:11.878Z,97280.97
2023-04-05T20:45:33.309Z,97281.22
2023-04-05T20:50:54.359Z,97277.25
2023-04-05T20:56:15.898Z,97275.22
2023-04-05T21:01:38.045Z,97281.41
2023-04-05T21:06:59.155Z,97275.22
2023-04-05T21:12:20.215Z,97275.19
2023-04-05T21:17:41.142Z,97275.19
2023-04-05T21:23:04.092Z,97274.28
2023-04-05T21:28:26.248Z,97268.97
2023-04-05T21:33:47.069Z,97275.28
2023-04-05T21:39:08.175Z,97274.72
2023-04-05T21:44:29.227Z,97270.94
2023-04-05T21:49:50.693Z,97272.28
2023-04-05T21:55:12.139Z,97274.47
2023-04-05T22:00:33.258Z,97270.00
2023-04-05T22:05:54.055Z,97279.72
2023-04-05T22:11:14.923Z,97267.34
2023-04-05T22:16:35.818Z,97275.72
2023-04-05T22:21:56.782Z,97278.31
2023-04-05T22:27:18.575Z,97276.09
2023-04-05T22:32:39.556Z,97267.84
2023-04-05T22:38:00.306Z,97266.13
2023-04-05T22:43:21.062Z,97266.66
2023-04-05T22:48:42.005Z,97268.63
2023-04-05T22:54:03.128Z,97258.50
2023-04-05T22:59:23.983Z,97265.31
2023-04-05T23:04:44.768Z,97260.88
2023-04-05T23:10:05.667Z,97263.28
2023-04-05T23:15:26.802Z,97260.03
2023-04-05T23:20:47.429Z,97252.84
2023-04-05T23:26:08.230Z,97263.38
2023-04-05T23:31:29.161Z,97259.53
2023-04-05T23:36:49.989Z,97252.72
2023-04-05T23:42:10.814Z,97257.97
2023-04-05T23:47:31.674Z,97254.09
2023-04-05T23:52:52.600Z,97256.19
2023-04-05T23:58:13.193Z,97247.78
